Time;durP1;ratioP1;P1;durP2;ratioP2;P2;SDS_P1;SDS_P2;PMS_P1;PMS_P2;Temp;Humidity;BMP_temperature;BMP_pressure;BME280_temperature;BME280_humidity;BME280_pressure;Samples;Min_cycle;Max_cycle;Signal;HPM_P1;HPM_P2
2022/10/13 00:01:13;;;;;;;;;;;;;;;10.97;68.03;101645.88;5005309;28;19932;-77
2022/10/13 00:03:38;;;;;;;;;;;;;;;11.02;68.56;101644.13;5008184;28;20342;-76
2022/10/13 00:06:07;;;;;;;;;;;;;;;11.05;69.28;101643.22;5007176;28;20570;-77
2022/10/13 00:08:33;;;;;;;;;;;;;;;11.09;69.15;101641.47;4989100;28;19921;-77
2022/10/13 00:10:59;;;;;;;;;;;;;;;11.06;68.99;101641.50;5004911;28;20301;-77
2022/10/13 00:13:24;;;;;;;;;;;;;;;11.09;69.43;101644.06;5009532;28;19917;-77
2022/10/13 00:15:50;;;;;;;;;;;;;;;11.09;69.18;101647.50;5009093;28;20334;-77
2022/10/13 00:18:15;;;;;;;;;;;;;;;11.06;69.42;101642.31;5010040;28;19925;-77
2022/10/13 00:20:41;;;;;;;;;;;;;;;11.11;69.21;101644.91;5005478;28;20307;-77
2022/10/13 00:23:07;;;;;;;;;;;;;;;11.10;68.91;101636.22;5005601;28;19929;-77
2022/10/13 00:25:33;;;;;;;;;;;;;;;11.02;69.51;101641.50;5009989;28;19936;-77
2022/10/13 00:27:58;;;;;;;;;;;;;;;11.10;69.06;101641.44;5009168;28;19932;-77
2022/10/13 00:30:23;;;;;;;;;;;;;;;11.08;69.28;101638.00;5011184;28;19936;-77
2022/10/13 00:32:48;;;;;;;;;;;;;;;11.07;69.07;101638.00;5009617;28;19965;-77
2022/10/13 00:35:14;;;;;;;;;;;;;;;11.06;69.32;101636.28;5012642;28;20375;-77
2022/10/13 00:37:39;;;;;;;;;;;;;;;11.13;69.01;101640.53;5006911;28;19932;-77
2022/10/13 00:40:04;;;;;;;;;;;;;;;11.07;69.42;101638.84;4996940;28;20383;-77
2022/10/13 00:42:30;;;;;;;;;;;;;;;11.09;69.26;101638.88;5008022;28;20039;-77
2022/10/13 00:45:04;;;;;;;;;;;;;;;11.09;69.90;101636.25;5008979;28;19964;-77
2022/10/13 00:47:34;;;;;;;;;;;;;;;11.08;69.81;101631.94;5014531;28;20007;-77
2022/10/13 00:50:01;;;;;;;;;;;;;;;11.09;69.56;101629.28;5008772;28;19945;-77
2022/10/13 00:52:27;;;;;;;;;;;;;;;11.05;70.04;101630.22;5001507;28;20413;-76
2022/10/13 00:54:54;;;;;;;;;;;;;;;11.02;69.53;101627.66;5008502;28;19921;-77
2022/10/13 00:57:20;;;;;;;;;;;;;;;11.16;69.12;101627.50;5009353;28;19957;-77
2022/10/13 00:59:46;;;;;;;;;;;;;;;11.07;69.57;101628.47;5008694;28;19972;-77
2022/10/13 01:02:11;;;;;;;;;;;;;;;11.10;69.58;101630.16;5004875;28;19921;-77
2022/10/13 01:04:39;;;;;;;;;;;;;;;11.06;69.78;101626.72;5009888;28;19963;-77
2022/10/13 01:07:04;;;;;;;;;;;;;;;11.08;69.35;101622.41;5007923;28;19928;-77
2022/10/13 01:09:36;;;;;;;;;;;;;;;11.03;69.32;101619.81;5009930;28;19922;-77
2022/10/13 01:12:18;;;;;;;;;;;;;;;11.03;69.50;101619.81;5008463;28;19930;-77
2022/10/13 01:14:48;;;;;;;;;;;;;;;11.09;69.40;101618.91;5008026;28;19980;-77
2022/10/13 01:17:32;;;;;;;;;;;;;;;11.14;69.79;101613.66;5012010;28;19929;-77
2022/10/13 01:20:16;;;;;;;;;;;;;;;11.06;69.59;101602.50;5009710;28;19952;-77
2022/10/13 01:22:41;;;;;;;;;;;;;;;11.13;70.00;101598.94;5002830;28;19926;-77
2022/10/13 01:25:07;;;;;;;;;;;;;;;11.12;70.02;101592.03;5006922;28;19925;-77
2022/10/13 01:27:38;;;;;;;;;;;;;;;11.15;69.64;101592.84;5007812;28;20048;-77
2022/10/13 01:30:08;;;;;;;;;;;;;;;11.17;70.08;101587.63;5009582;28;19921;-77
2022/10/13 01:32:57;;;;;;;;;;;;;;;11.16;69.68;101588.50;5009903;28;19945;-77
2022/10/13 01:35:37;;;;;;;;;;;;;;;11.08;70.16;101586.00;5007808;28;20628;-77
2022/10/13 01:38:03;;;;;;;;;;;;;;;11.16;70.19;101586.78;5005922;28;19928;-77
2022/10/13 01:40:35;;;;;;;;;;;;;;;11.12;70.36;101579.03;4994129;28;19917;-77
2022/10/13 01:43:03;;;;;;;;;;;;;;;11.14;69.52;101577.25;5010595;28;20485;-76
2022/10/13 01:45:30;;;;;;;;;;;;;;;11.14;69.06;101574.66;5007690;28;20437;-77
2022/10/13 01:47:58;;;;;;;;;;;;;;;11.17;69.24;101572.91;5011409;28;20151;-77
2022/10/13 01:50:23;;;;;;;;;;;;;;;11.18;69.37;101565.94;5006691;28;19936;-77
2022/10/13 01:52:49;;;;;;;;;;;;;;;11.13;69.45;101567.72;4989591;28;19929;-77
2022/10/13 01:55:14;;;;;;;;;;;;;;;11.20;69.71;101565.06;5007392;28;19926;-77
2022/10/13 01:57:40;;;;;;;;;;;;;;;11.22;69.90;101562.44;5006136;28;19929;-77
2022/10/13 02:00:10;;;;;;;;;;;;;;;11.28;69.76;101565.88;5005468;28;19961;-77
2022/10/13 02:02:40;;;;;;;;;;;;;;;11.19;70.27;101563.31;5000500;28;19929;-77
2022/10/13 02:05:11;;;;;;;;;;;;;;;11.21;70.35;101558.09;5014339;28;19921;-77
2022/10/13 02:07:48;;;;;;;;;;;;;;;11.23;70.37;101556.38;5009054;28;19982;-77
2022/10/13 02:10:26;;;;;;;;;;;;;;;11.14;70.63;101552.13;5013087;28;20679;-77
2022/10/13 02:13:02;;;;;;;;;;;;;;;11.21;70.53;101551.16;5007644;28;19930;-77
2022/10/13 02:15:30;;;;;;;;;;;;;;;11.25;70.79;101546.78;5008156;28;20013;-77
2022/10/13 02:17:55;;;;;;;;;;;;;;;11.23;70.29;101545.97;5013846;28;19925;-77
2022/10/13 02:20:21;;;;;;;;;;;;;;;11.28;70.28;101544.19;5005390;28;20437;-77
2022/10/13 02:22:47;;;;;;;;;;;;;;;11.25;70.69;101544.19;5003910;28;20371;-77
2022/10/13 02:25:13;;;;;;;;;;;;;;;11.26;70.41;101543.31;5005981;28;19961;-77
2022/10/13 02:27:38;;;;;;;;;;;;;;;11.25;70.36;101536.38;5007152;28;20401;-77
2022/10/13 02:30:04;;;;;;;;;;;;;;;11.26;70.00;101535.53;5006639;28;19922;-77
2022/10/13 02:32:29;;;;;;;;;;;;;;;11.21;70.22;101540.75;5003360;28;19928;-77
2022/10/13 02:34:55;;;;;;;;;;;;;;;11.15;70.68;101540.81;5004209;28;19925;-77
2022/10/13 02:37:20;;;;;;;;;;;;;;;11.25;70.34;101537.25;5006514;28;19917;-77
2022/10/13 02:39:45;;;;;;;;;;;;;;;11.25;70.63;101547.66;5007395;28;19929;-77
2022/10/13 02:42:10;;;;;;;;;;;;;;;11.33;70.36;101548.47;5005343;28;20294;-77
2022/10/13 02:44:36;;;;;;;;;;;;;;;11.39;70.52;101543.19;5009101;28;19991;-77
2022/10/13 02:47:01;;;;;;;;;;;;;;;11.37;70.58;101542.34;5007197;28;19922;-77
2022/10/13 02:49:26;;;;;;;;;;;;;;;11.42;70.26;101540.53;5009127;28;20517;-77
2022/10/13 02:51:52;;;;;;;;;;;;;;;11.36;70.62;101547.56;5004150;28;19984;-77
2022/10/13 02:54:17;;;;;;;;;;;;;;;11.38;70.64;101548.41;5006992;28;20004;-77
2022/10/13 02:56:43;;;;;;;;;;;;;;;11.39;70.83;101543.19;5009431;28;19932;-77
2022/10/13 02:59:08;;;;;;;;;;;;;;;11.45;70.27;101537.03;5010206;28;19918;-76
2022/10/13 03:01:34;;;;;;;;;;;;;;;11.39;70.52;101537.13;5008841;28;19932;-77
2022/10/13 03:04:00;;;;;;;;;;;;;;;11.38;70.69;101536.25;5006514;28;19991;-77
2022/10/13 03:06:25;;;;;;;;;;;;;;;11.40;70.85;101546.66;5007482;28;19925;-77
2022/10/13 03:08:50;;;;;;;;;;;;;;;11.37;70.89;101546.69;5009473;28;19933;-77
2022/10/13 03:11:15;;;;;;;;;;;;;;;11.41;71.23;101549.22;5003553;28;19932;-77
2022/10/13 03:13:41;;;;;;;;;;;;;;;11.37;71.05;101552.75;4994776;28;20012;-77
2022/10/13 03:16:06;;;;;;;;;;;;;;;11.40;70.53;101549.25;5009686;28;19921;-76
2022/10/13 03:18:31;;;;;;;;;;;;;;;11.36;71.00;101540.63;5008498;28;20025;-77
2022/10/13 03:21:01;;;;;;;;;;;;;;;11.43;71.02;101541.41;5002218;28;19926;-77
2022/10/13 03:23:26;;;;;;;;;;;;;;;11.49;70.75;101536.13;5004592;28;20644;-77
2022/10/13 03:25:52;;;;;;;;;;;;;;;11.45;71.02;101534.44;5012868;28;19928;-76
2022/10/13 03:28:17;;;;;;;;;;;;;;;11.45;71.09;101530.09;5011935;28;19914;-77
2022/10/13 03:30:43;;;;;;;;;;;;;;;11.43;70.77;101531.00;5003608;28;20016;-77
2022/10/13 03:33:08;;;;;;;;;;;;;;;11.40;71.18;101533.66;5005464;28;19925;-77
2022/10/13 03:35:33;;;;;;;;;;;;;;;11.35;70.79;101528.50;5008168;28;19984;-77
2022/10/13 03:37:59;;;;;;;;;;;;;;;11.41;70.74;101522.38;5006003;28;19933;-76
2022/10/13 03:40:24;;;;;;;;;;;;;;;11.42;70.88;101522.34;5007128;28;19922;-77
2022/10/13 03:42:49;;;;;;;;;;;;;;;11.42;70.63;101511.94;5007262;28;20004;-77
2022/10/13 03:45:14;;;;;;;;;;;;;;;11.49;70.63;101516.19;5006118;28;19929;-77
2022/10/13 03:47:40;;;;;;;;;;;;;;;11.51;70.49;101508.34;5012385;28;19968;-77
2022/10/13 03:50:05;;;;;;;;;;;;;;;11.54;70.73;101503.09;5009391;28;20428;-77
2022/10/13 03:52:31;;;;;;;;;;;;;;;11.54;70.55;101505.69;5002898;28;20359;-77
2022/10/13 03:54:56;;;;;;;;;;;;;;;11.53;70.45;101498.81;5007494;28;19932;-77
2022/10/13 03:57:21;;;;;;;;;;;;;;;11.54;70.62;101497.91;5009010;28;20031;-77
2022/10/13 03:59:47;;;;;;;;;;;;;;;11.57;70.43;101497.84;5007275;28;19979;-77
2022/10/13 04:02:12;;;;;;;;;;;;;;;11.53;70.70;101498.81;4993005;28;19921;-77
2022/10/13 04:04:37;;;;;;;;;;;;;;;11.55;70.72;101500.50;4995350;28;19932;-77
2022/10/13 04:07:03;;;;;;;;;;;;;;;11.47;70.86;101496.28;5008852;28;19929;-77
2022/10/13 04:09:28;;;;;;;;;;;;;;;11.43;70.37;101489.38;5010146;28;20016;-77
2022/10/13 04:11:54;;;;;;;;;;;;;;;11.44;70.14;101491.94;5006915;28;19967;-77
2022/10/13 04:14:19;;;;;;;;;;;;;;;11.39;70.12;101496.34;5005991;28;19948;-77
2022/10/13 04:16:44;;;;;;;;;;;;;;;11.31;70.63;101499.94;5007455;28;20535;-77
2022/10/13 04:19:11;;;;;;;;;;;;;;;11.39;70.42;101488.56;4990899;28;20016;-77
2022/10/13 04:21:36;;;;;;;;;;;;;;;11.31;69.96;101497.34;5007106;28;20071;-77
2022/10/13 04:24:02;;;;;;;;;;;;;;;11.34;69.97;101497.31;5008286;28;20057;-77
2022/10/13 04:26:28;;;;;;;;;;;;;;;11.24;70.88;101486.09;5010782;28;20397;-77
2022/10/13 04:28:54;;;;;;;;;;;;;;;11.31;70.22;101492.13;5014120;28;20294;-77
2022/10/13 04:31:23;;;;;;;;;;;;;;;11.28;70.51;101493.03;5013437;28;19926;-77
2022/10/13 04:33:49;;;;;;;;;;;;;;;11.26;70.78;101486.09;5009124;28;20326;-77
2022/10/13 04:36:15;;;;;;;;;;;;;;;11.21;70.60;101482.69;4996939;28;19921;-77
2022/10/13 04:38:41;;;;;;;;;;;;;;;11.24;70.45;101475.69;5009747;28;19968;-77
2022/10/13 04:41:07;;;;;;;;;;;;;;;11.25;70.60;101481.78;5008634;28;19929;-77
2022/10/13 04:43:32;;;;;;;;;;;;;;;11.22;69.78;101477.47;4996136;28;19935;-76
2022/10/13 04:46:08;;;;;;;;;;;;;;;11.25;69.67;101485.25;5016640;28;20047;-77
2022/10/13 04:48:33;;;;;;;;;;;;;;;11.34;69.79;101472.16;5009499;28;19925;-77
2022/10/13 04:51:06;;;;;;;;;;;;;;;11.27;69.69;101483.47;5007674;28;19988;-77
2022/10/13 04:53:31;;;;;;;;;;;;;;;11.15;70.40;101478.41;5010884;28;19925;-77
2022/10/13 04:56:00;;;;;;;;;;;;;;;11.21;69.95;101469.69;5008932;28;19925;-77
2022/10/13 04:58:25;;;;;;;;;;;;;;;11.19;70.85;101474.91;5009956;28;20041;-77
2022/10/13 05:00:50;;;;;;;;;;;;;;;11.26;70.08;101471.38;5007721;28;20571;-77
2022/10/13 05:03:15;;;;;;;;;;;;;;;11.17;70.12;101466.28;5008208;28;19936;-77
2022/10/13 05:05:41;;;;;;;;;;;;;;;11.22;70.92;101474.88;5006845;28;20450;-77
2022/10/13 05:08:06;;;;;;;;;;;;;;;11.24;70.36;101474.84;5009462;28;20417;-77
2022/10/13 05:10:31;;;;;;;;;;;;;;;11.17;70.55;101461.06;5008800;28;19922;-77
2022/10/13 05:12:56;;;;;;;;;;;;;;;11.19;70.81;101477.50;5011845;28;20008;-77
2022/10/13 05:15:22;;;;;;;;;;;;;;;11.16;71.51;101468.88;5007526;28;20297;-77
2022/10/13 05:17:47;;;;;;;;;;;;;;;11.17;71.02;101479.28;5012521;28;19972;-77
2022/10/13 05:20:13;;;;;;;;;;;;;;;11.15;71.34;101469.75;5004911;28;19977;-77
2022/10/13 05:22:38;;;;;;;;;;;;;;;11.18;71.28;101454.97;5006318;28;19972;-78
2022/10/13 05:25:04;;;;;;;;;;;;;;;11.16;70.95;101456.75;5012448;28;19925;-77
2022/10/13 05:27:29;;;;;;;;;;;;;;;11.18;70.68;101469.72;5008268;28;20298;-77
2022/10/13 05:29:54;;;;;;;;;;;;;;;11.17;71.09;101465.41;5007894;28;20386;-77
2022/10/13 05:32:19;;;;;;;;;;;;;;;11.20;71.22;101452.38;5005943;28;19929;-77
2022/10/13 05:34:46;;;;;;;;;;;;;;;11.18;70.79;101452.38;5010786;28;19931;-76
2022/10/13 05:37:11;;;;;;;;;;;;;;;11.22;70.83;101458.41;5009517;28;20004;-77
2022/10/13 05:39:37;;;;;;;;;;;;;;;11.20;70.80;101461.03;5008896;28;19952;-77
2022/10/13 05:42:02;;;;;;;;;;;;;;;11.14;70.86;101455.91;5005088;28;19921;-77
2022/10/13 05:44:28;;;;;;;;;;;;;;;11.19;70.88;101442.84;5008039;28;19925;-77
2022/10/13 05:46:54;;;;;;;;;;;;;;;11.20;70.58;101442.84;5008757;28;19925;-77
2022/10/13 05:49:19;;;;;;;;;;;;;;;11.20;70.61;101441.97;4995448;28;19929;-77
2022/10/13 05:51:52;;;;;;;;;;;;;;;11.24;70.63;101447.09;5006920;28;19926;-77
2022/10/13 05:54:32;;;;;;;;;;;;;;;11.24;70.56;101438.44;5000796;28;19927;-77
2022/10/13 05:57:12;;;;;;;;;;;;;;;11.21;70.51;101446.28;5008138;28;20019;-77
2022/10/13 05:59:40;;;;;;;;;;;;;;;11.22;70.69;101448.88;5010254;28;19925;-77
2022/10/13 06:02:06;;;;;;;;;;;;;;;11.30;70.44;101441.84;5006152;28;19929;-78
2022/10/13 06:04:38;;;;;;;;;;;;;;;11.26;70.25;101447.97;5004590;28;20282;-77
2022/10/13 06:07:04;;;;;;;;;;;;;;;11.29;70.90;101442.75;5005328;28;19951;-78
2022/10/13 06:09:33;;;;;;;;;;;;;;;11.31;70.31;101450.53;5006031;28;19936;-78
2022/10/13 06:11:59;;;;;;;;;;;;;;;11.33;70.44;101433.13;5003524;28;19969;-77
2022/10/13 06:14:24;;;;;;;;;;;;;;;11.29;70.61;101437.56;5012011;28;19965;-77
2022/10/13 06:16:50;;;;;;;;;;;;;;;11.31;70.46;101440.97;5009768;28;20367;-76
2022/10/13 06:19:15;;;;;;;;;;;;;;;11.33;70.98;101439.22;5009362;28;19933;-77
2022/10/13 06:21:40;;;;;;;;;;;;;;;11.35;70.89;101440.06;4993037;28;20363;-77
2022/10/13 06:24:05;;;;;;;;;;;;;;;11.33;70.78;101447.00;5003161;28;19936;-77
2022/10/13 06:26:31;;;;;;;;;;;;;;;11.28;71.19;101442.75;5006266;28;20302;-77
2022/10/13 06:28:56;;;;;;;;;;;;;;;11.31;71.40;101432.31;5006352;28;20619;-77
2022/10/13 06:31:21;;;;;;;;;;;;;;;11.30;71.33;101438.38;4993302;28;20024;-77
2022/10/13 06:33:46;;;;;;;;;;;;;;;11.36;71.46;101440.91;5008298;28;19922;-77
2022/10/13 06:36:12;;;;;;;;;;;;;;;11.31;71.18;101448.78;5006265;28;19921;-77
2022/10/13 06:38:37;;;;;;;;;;;;;;;11.37;71.57;101438.31;5006657;28;19926;-77
2022/10/13 06:41:03;;;;;;;;;;;;;;;11.45;70.63;101428.63;5004478;28;19979;-77
2022/10/13 06:43:28;;;;;;;;;;;;;;;11.38;71.33;101418.34;5007166;28;19980;-77
2022/10/13 06:45:58;;;;;;;;;;;;;;;11.44;70.94;101428.69;5007978;28;19925;-77
2022/10/13 06:48:23;;;;;;;;;;;;;;;11.39;71.06;101427.84;5005242;28;19932;-77
2022/10/13 06:50:49;;;;;;;;;;;;;;;11.39;70.84;101438.25;5006331;28;19929;-77
2022/10/13 06:53:14;;;;;;;;;;;;;;;11.38;71.35;101445.19;5004286;28;19932;-77
2022/10/13 06:55:42;;;;;;;;;;;;;;;11.34;71.15;101443.53;5002307;28;19922;-77
2022/10/13 06:58:07;;;;;;;;;;;;;;;11.42;70.75;101451.22;5006232;28;19921;-77
2022/10/13 07:00:33;;;;;;;;;;;;;;;11.48;70.72;101439.00;5004447;28;19928;-77
2022/10/13 07:02:58;;;;;;;;;;;;;;;11.48;70.72;101441.59;5005392;28;19935;-77
2022/10/13 07:05:23;;;;;;;;;;;;;;;11.45;71.22;101441.66;5005158;28;19937;-77
2022/10/13 07:07:51;;;;;;;;;;;;;;;11.51;71.00;101435.50;5005511;28;19940;-77
2022/10/13 07:10:17;;;;;;;;;;;;;;;11.51;71.52;101444.16;5009369;28;19909;-77
2022/10/13 07:12:42;;;;;;;;;;;;;;;11.46;71.70;101440.78;5005826;28;19922;-77
2022/10/13 07:15:07;;;;;;;;;;;;;;;11.57;71.50;101446.69;5007243;28;19931;-77
2022/10/13 07:17:33;;;;;;;;;;;;;;;11.57;71.74;101443.22;5009341;28;19921;-77
2022/10/13 07:19:58;;;;;;;;;;;;;;;11.57;71.83;101440.59;5003862;28;20348;-77
2022/10/13 07:22:23;;;;;;;;;;;;;;;11.62;72.08;101435.34;5007914;28;19935;-77
2022/10/13 07:24:48;;;;;;;;;;;;;;;11.69;72.08;101431.75;5008637;28;19987;-77
2022/10/13 07:27:14;;;;;;;;;;;;;;;11.70;71.74;101436.09;5008976;28;19925;-77
2022/10/13 07:29:39;;;;;;;;;;;;;;;11.59;72.05;101438.88;5005114;28;20438;-77
2022/10/13 07:32:05;;;;;;;;;;;;;;;11.69;72.08;101447.38;5007765;28;19975;-77
2022/10/13 07:34:30;;;;;;;;;;;;;;;11.66;72.14;101453.50;5005069;28;20582;-77
2022/10/13 07:36:55;;;;;;;;;;;;;;;11.71;72.28;101449.06;5002469;28;19976;-77
2022/10/13 07:39:21;;;;;;;;;;;;;;;11.74;72.11;101453.41;4986528;28;19921;-77
2022/10/13 07:41:46;;;;;;;;;;;;;;;11.71;72.53;101443.88;5006815;28;19933;-77
2022/10/13 07:44:11;;;;;;;;;;;;;;;11.78;71.84;101440.28;5008276;28;19929;-77
2022/10/13 07:46:36;;;;;;;;;;;;;;;11.74;71.80;101449.03;5009883;28;19928;-76
2022/10/13 07:49:02;;;;;;;;;;;;;;;11.70;71.70;101447.38;5008058;28;20410;-77
2022/10/13 07:51:27;;;;;;;;;;;;;;;11.73;72.04;101439.53;5001036;28;19930;-77
2022/10/13 07:53:53;;;;;;;;;;;;;;;11.78;71.88;101437.69;4977460;28;19967;-77
2022/10/13 07:56:18;;;;;;;;;;;;;;;11.81;71.66;101424.63;5014238;28;20444;-77
2022/10/13 07:58:44;;;;;;;;;;;;;;;11.83;72.02;101422.84;5008133;28;19987;-77
2022/10/13 08:01:10;;;;;;;;;;;;;;;11.95;71.66;101421.78;5004541;28;19960;-77
2022/10/13 08:03:36;;;;;;;;;;;;;;;12.03;71.71;101427.75;5005371;28;19971;-77
2022/10/13 08:06:02;;;;;;;;;;;;;;;11.98;71.74;101432.16;5003866;28;19961;-77
2022/10/13 08:08:28;;;;;;;;;;;;;;;11.99;72.08;101442.56;5006448;28;19926;-77
2022/10/13 08:10:53;;;;;;;;;;;;;;;12.00;71.76;101440.84;5006396;28;19983;-76
2022/10/13 08:13:18;;;;;;;;;;;;;;;12.10;71.93;101424.16;5007230;28;20012;-77
2022/10/13 08:15:45;;;;;;;;;;;;;;;12.17;71.49;101417.97;4989875;28;19964;-77
2022/10/13 08:18:11;;;;;;;;;;;;;;;12.10;71.96;101421.53;5009160;28;20568;-77
2022/10/13 08:20:41;;;;;;;;;;;;;;;12.10;72.20;101426.75;5001830;28;19925;-77
2022/10/13 08:23:06;;;;;;;;;;;;;;;12.08;72.29;101429.41;5003216;28;20405;-77
2022/10/13 08:25:35;;;;;;;;;;;;;;;12.15;72.27;101427.56;5006278;28;20019;-77
2022/10/13 08:28:00;;;;;;;;;;;;;;;12.08;72.86;101431.13;5004550;28;19921;-77
2022/10/13 08:30:26;;;;;;;;;;;;;;;12.10;73.11;101434.56;5004753;28;20275;-77
2022/10/13 08:32:51;;;;;;;;;;;;;;;12.14;72.92;101436.25;5001984;28;20311;-77
2022/10/13 08:35:16;;;;;;;;;;;;;;;12.17;73.04;101427.53;5013098;28;19925;-76
2022/10/13 08:37:41;;;;;;;;;;;;;;;12.21;72.95;101434.41;5004558;28;19957;-77
2022/10/13 08:40:10;;;;;;;;;;;;;;;12.27;72.92;101427.34;5012211;28;19953;-77
2022/10/13 08:42:36;;;;;;;;;;;;;;;12.33;73.05;101426.38;5009825;28;20306;-77
2022/10/13 08:45:04;;;;;;;;;;;;;;;12.39;72.52;101421.94;5003298;28;19921;-77
2022/10/13 08:47:45;;;;;;;;;;;;;;;12.42;72.48;101427.06;5010500;28;20021;-77
2022/10/13 08:50:13;;;;;;;;;;;;;;;12.44;72.57;101421.81;5012088;28;20587;-77
2022/10/13 08:52:47;;;;;;;;;;;;;;;12.54;72.48;101419.03;5008310;28;19968;-77
2022/10/13 08:55:22;;;;;;;;;;;;;;;12.54;71.87;101413.84;5007876;28;19956;-77
2022/10/13 08:57:47;;;;;;;;;;;;;;;12.59;71.52;101417.22;5006744;28;19925;-76
2022/10/13 09:00:13;;;;;;;;;;;;;;;12.63;72.21;101407.63;5005999;28;19932;-77
2022/10/13 09:02:38;;;;;;;;;;;;;;;12.60;72.63;101407.66;5003643;28;19925;-77
2022/10/13 09:05:08;;;;;;;;;;;;;;;12.61;72.24;101406.75;5005540;28;19922;-77
2022/10/13 09:07:35;;;;;;;;;;;;;;;12.65;72.42;101409.28;5008730;28;19921;-77
2022/10/13 09:10:01;;;;;;;;;;;;;;;12.64;72.47;101404.97;5009977;28;19985;-77
2022/10/13 09:12:26;;;;;;;;;;;;;;;12.70;72.49;101403.13;5008377;28;19929;-77
2022/10/13 09:15:00;;;;;;;;;;;;;;;12.66;72.40;101408.38;5011155;28;19968;-77
2022/10/13 09:17:25;;;;;;;;;;;;;;;12.68;72.44;101408.38;5004354;28;19925;-77
2022/10/13 09:19:57;;;;;;;;;;;;;;;12.71;72.59;101408.31;5012492;28;19929;-77
2022/10/13 09:22:32;;;;;;;;;;;;;;;12.71;72.40;101407.44;5007955;28;20002;-77
2022/10/13 09:25:08;;;;;;;;;;;;;;;12.68;72.83;101404.91;5006948;28;19922;-77
2022/10/13 09:27:44;;;;;;;;;;;;;;;12.73;72.46;101403.06;4999507;28;19936;-77
2022/10/13 09:30:28;;;;;;;;;;;;;;;12.71;72.17;101405.72;5006858;28;19941;-77
2022/10/13 09:33:17;;;;;;;;;;;;;;;12.76;72.56;101405.59;5009863;28;19925;-77
2022/10/13 09:35:43;;;;;;;;;;;;;;;12.77;72.30;101402.13;5000724;28;19956;-74
2022/10/13 09:38:19;;;;;;;;;;;;;;;12.78;72.78;101401.25;5004949;28;20576;-74
2022/10/13 09:41:02;;;;;;;;;;;;;;;12.81;72.60;101401.19;5009872;28;19944;-74
2022/10/13 09:43:42;;;;;;;;;;;;;;;12.85;72.90;101402.81;5009269;28;19924;-74
2022/10/13 09:46:22;;;;;;;;;;;;;;;12.87;72.80;101396.66;5008561;28;19933;-74
2022/10/13 09:48:49;;;;;;;;;;;;;;;12.87;72.83;101404.50;5009861;28;19957;-74
2022/10/13 09:51:30;;;;;;;;;;;;;;;12.91;73.42;101392.25;5003365;28;19968;-74
2022/10/13 09:53:55;;;;;;;;;;;;;;;12.94;73.38;101397.41;5002235;28;19930;-74
2022/10/13 09:56:37;;;;;;;;;;;;;;;12.94;73.60;101403.50;5003858;28;19925;-74
2022/10/13 09:59:05;;;;;;;;;;;;;;;12.97;73.31;101394.75;5003331;28;20449;-74
2022/10/13 10:01:33;;;;;;;;;;;;;;;13.01;73.55;101383.38;5005683;28;19928;-74
2022/10/13 10:04:02;;;;;;;;;;;;;;;13.02;73.44;101385.06;5007371;28;19937;-74
2022/10/13 10:06:28;;;;;;;;;;;;;;;13.00;73.50;101384.25;5007001;28;20382;-74
2022/10/13 10:08:53;;;;;;;;;;;;;;;13.01;73.36;101380.75;5006110;28;19932;-74
2022/10/13 10:11:39;;;;;;;;;;;;;;;13.02;73.29;101375.50;5014005;28;20516;-74
2022/10/13 10:14:25;;;;;;;;;;;;;;;12.99;73.60;101372.09;5005580;28;19925;-74
2022/10/13 10:17:01;;;;;;;;;;;;;;;13.02;73.48;101378.09;5008031;28;19921;-74
2022/10/13 10:19:41;;;;;;;;;;;;;;;13.07;73.44;101371.06;5009663;28;19913;-74
2022/10/13 10:22:06;;;;;;;;;;;;;;;13.04;73.64;101373.72;4994752;28;19931;-74
2022/10/13 10:24:32;;;;;;;;;;;;;;;13.13;73.37;101367.44;5003869;28;19925;-74
2022/10/13 10:27:06;;;;;;;;;;;;;;;13.13;73.44;101364.84;4990654;28;20014;-73
2022/10/13 10:29:31;;;;;;;;;;;;;;;13.14;73.57;101356.97;5001371;28;20822;-74
2022/10/13 10:32:02;;;;;;;;;;;;;;;13.20;73.13;101361.19;5006130;28;19925;-74
2022/10/13 10:34:36;;;;;;;;;;;;;;;13.18;73.93;101355.16;5002909;28;20374;-74
2022/10/13 10:37:02;;;;;;;;;;;;;;;13.22;73.51;101352.44;5006994;28;20364;-74
2022/10/13 10:39:35;;;;;;;;;;;;;;;13.22;74.24;101355.03;5006260;28;19960;-74
2022/10/13 10:42:20;;;;;;;;;;;;;;;13.28;73.53;101343.63;5002058;28;19979;-74
2022/10/13 10:44:59;;;;;;;;;;;;;;;13.30;73.52;101339.22;5001464;28;20055;-74
2022/10/13 10:47:27;;;;;;;;;;;;;;;13.33;73.50;101347.00;5001848;28;20401;-73
2022/10/13 10:49:57;;;;;;;;;;;;;;;13.36;73.68;101340.84;5003147;28;20126;-74
2022/10/13 10:52:26;;;;;;;;;;;;;;;13.41;72.88;101336.34;5010953;28;20386;-74
2022/10/13 10:54:51;;;;;;;;;;;;;;;13.42;73.54;101328.50;5007222;28;20414;-74
2022/10/13 10:57:33;;;;;;;;;;;;;;;13.43;73.38;101325.00;5006653;28;19925;-73
2022/10/13 11:00:12;;;;;;;;;;;;;;;13.41;73.50;101324.16;5008235;28;19929;-74
2022/10/13 11:02:46;;;;;;;;;;;;;;;13.52;72.62;101316.09;5003262;28;20024;-73
2022/10/13 11:05:12;;;;;;;;;;;;;;;13.51;73.33;101314.38;5006133;28;19937;-74
2022/10/13 11:07:37;;;;;;;;;;;;;;;13.53;73.68;101320.41;5006933;28;19917;-74
2022/10/13 11:10:15;;;;;;;;;;;;;;;13.56;73.89;101310.75;5008464;28;19914;-74
2022/10/13 11:12:50;;;;;;;;;;;;;;;13.59;73.70;101310.69;4988659;28;20040;-74
2022/10/13 11:15:23;;;;;;;;;;;;;;;13.63;73.66;101311.47;5010011;28;19994;-74
2022/10/13 11:17:49;;;;;;;;;;;;;;;13.63;73.91;101308.84;5007903;28;19925;-74
2022/10/13 11:20:17;;;;;;;;;;;;;;;13.65;73.35;101310.53;5012808;28;19979;-74
2022/10/13 11:23:02;;;;;;;;;;;;;;;13.68;73.70;101312.22;5013860;28;19925;-74
2022/10/13 11:25:39;;;;;;;;;;;;;;;13.67;73.33;101311.38;4993253;28;19918;-74
2022/10/13 11:28:20;;;;;;;;;;;;;;;13.75;72.56;101305.97;5017552;28;20348;-74
2022/10/13 11:30:50;;;;;;;;;;;;;;;13.77;73.17;101306.78;5005998;28;19972;-74
2022/10/13 11:33:34;;;;;;;;;;;;;;;13.76;73.25;101299.81;5003392;28;19937;-74
2022/10/13 11:36:18;;;;;;;;;;;;;;;13.81;72.62;101297.97;5001345;28;19926;-74
2022/10/13 11:38:48;;;;;;;;;;;;;;;13.82;72.26;101291.00;4988791;28;19922;-74
2022/10/13 11:41:21;;;;;;;;;;;;;;;13.90;70.54;101291.66;5010419;28;19921;-75
2022/10/13 11:43:51;;;;;;;;;;;;;;;13.98;68.62;101284.47;5008803;28;19951;-74
2022/10/13 11:46:24;;;;;;;;;;;;;;;13.94;69.41;101282.84;5010525;28;19913;-74
2022/10/13 11:49:01;;;;;;;;;;;;;;;13.90;69.58;101279.47;5009271;28;19921;-74
2022/10/13 11:51:29;;;;;;;;;;;;;;;13.92;69.33;101277.66;5003130;28;19940;-74
2022/10/13 11:53:55;;;;;;;;;;;;;;;13.90;69.62;101271.63;5003628;28;20390;-74
2022/10/13 11:56:22;;;;;;;;;;;;;;;13.91;69.88;101272.50;5008053;28;19925;-74
2022/10/13 11:58:47;;;;;;;;;;;;;;;13.90;68.50;101273.38;5006289;28;19924;-74
2022/10/13 12:01:14;;;;;;;;;;;;;;;13.90;67.90;101271.63;5009816;28;20008;-74
2022/10/13 12:03:43;;;;;;;;;;;;;;;13.87;67.22;101273.47;5012203;28;19917;-74
2022/10/13 12:06:17;;;;;;;;;;;;;;;13.92;67.61;101268.97;5010579;28;19995;-74
2022/10/13 12:08:47;;;;;;;;;;;;;;;13.94;68.23;101264.56;5016823;28;20068;-74
2022/10/13 12:11:23;;;;;;;;;;;;;;;13.95;70.01;101261.03;5017281;28;19976;-74
2022/10/13 12:13:49;;;;;;;;;;;;;;;14.01;69.92;101264.34;5013378;28;19941;-74
2022/10/13 12:16:14;;;;;;;;;;;;;;;14.00;70.05;101264.38;5012233;28;20465;-74
2022/10/13 12:18:39;;;;;;;;;;;;;;;14.04;68.56;101266.88;5014707;28;19918;-74
2022/10/13 12:21:13;;;;;;;;;;;;;;;14.01;69.82;101266.09;5013885;28;19926;-74
2022/10/13 12:23:39;;;;;;;;;;;;;;;14.01;69.58;101271.31;5010424;28;20019;-74
2022/10/13 12:26:04;;;;;;;;;;;;;;;14.00;68.83;101269.59;5014936;28;19918;-74
2022/10/13 12:28:50;;;;;;;;;;;;;;;13.99;69.74;101273.13;5016801;28;19928;-74
2022/10/13 12:31:20;;;;;;;;;;;;;;;14.02;70.08;101262.59;5015717;28;19934;-74
2022/10/13 12:33:51;;;;;;;;;;;;;;;14.02;70.17;101260.00;5010514;28;19929;-74
2022/10/13 12:36:18;;;;;;;;;;;;;;;14.01;70.80;101264.34;5013476;28;19964;-74
2022/10/13 12:38:48;;;;;;;;;;;;;;;14.01;70.66;101255.66;5016100;28;19921;-74
2022/10/13 12:41:15;;;;;;;;;;;;;;;14.00;70.91;101259.16;5009791;28;19921;-74